Aérodrome :
LOGIN :

S'inscrire | Disclaimer

   EN    FR    IT 

 










Légende :    VFR   VFR Marginal   IFR   IFR Intensif   IFR Très Intensif
Visi : 
Plafond : 
>= 8 km
>= 3000ft
5 à 8 km
1000 à 3000 ft
1500m à 5 km
500 à 1000 ft
800 à 1500m
200 à 500 ft
< 800m
< 200 ft
Symboles :   Orages  Brouillard  Fortes neiges  Fortes précipitations  Vent > 20 kt
SIGMETs :   Divers  Orages  Givrage  Turbulence  Onde Orograph.  Cendres Volcan.






- Altitude de l'aérodrome : 164 ft
- Code IATA : VBY


ESSV - Visby

DERNIER METAR :
  • 300720Z 36015KT 2800 -SHSN SCT005 BKN008 M00/M01 Q1020

METARs EXPIRÉS :
  • 300650Z 36013KT 8000 SHSN FEW007 SCT020 BKN043 01/M00 Q1020
  • 300620Z 36013KT 9999 FEW031 BKN042 02/M01 Q1020
  • 300550Z 35012KT 9999 BKN045 02/M03 Q1019
  • 300520Z 33011KT CAVOK 02/M03 Q1019

TAF AMD TAF ESSV
Valide du 30 à 06h jusqu'au 30 à 15h UTC


300720Z 3006/3015 33010KT 9999 BKN025
PROB40 3006/3010 0800 SHSN BKN010 BKN030CB
BECMG 3007/3009 01018G30KT



MET'MAP, la Météo Aéronautique d'un coup d'oeil ! - Copyright ORBIFLY Décembre 2007 - Disclaimer

ORBIFLY MET'MAP TEAM :

Programmation & Développement : Alexandra Zaïnal
Sur une idée originale de : Baudouin d'Aumeries
Assistance à la programmation : Marc-Olivier Méhu
Soutien technique & logistique : Manuel Goepfert

Contact : metmap@orbifly.com




SOURCES & CREDITS :

   NOAA